Time;durP1;ratioP1;P1;durP2;ratioP2;P2;SDS_P1;SDS_P2;PMS_P1;PMS_P2;Temp;Humidity;BMP_temperature;BMP_pressure;BME280_temperature;BME280_humidity;BME280_pressure;Samples;Min_cycle;Max_cycle;Signal;HPM_P1;HPM_P2
2022/05/10 00:02:17;;;;;;;15.00;13.60;;;;;;;;;;5065348;28;20618;-78
2022/05/10 00:04:45;;;;;;;14.90;13.40;;;;;;;;;;5049133;28;20434;-78
2022/05/10 00:07:12;;;;;;;13.93;12.73;;;;;;;;;;5069771;28;20442;-78
2022/05/10 00:09:41;;;;;;;14.33;12.93;;;;;;;;;;5051409;28;20621;-78
2022/05/10 00:12:08;;;;;;;15.20;13.70;;;;;;;;;;5064821;28;20525;-78
2022/05/10 00:14:35;;;;;;;14.23;12.93;;;;;;;;;;5049654;28;20537;-78
2022/05/10 00:17:03;;;;;;;15.40;14.10;;;;;;;;;;5066213;28;20450;-78
2022/05/10 00:19:30;;;;;;;14.70;13.30;;;;;;;;;;5047835;28;20434;-78
2022/05/10 00:21:57;;;;;;;13.63;12.40;;;;;;;;;;5048672;28;20529;-78
2022/05/10 00:24:23;;;;;;;14.67;13.23;;;;;;;;;;5048164;28;20469;-78
2022/05/10 00:26:52;;;;;;;13.63;12.43;;;;;;;;;;5068771;28;20772;-78
2022/05/10 00:29:20;;;;;;;14.57;13.17;;;;;;;;;;5064601;28;20781;-78
2022/05/10 00:31:46;;;;;;;15.10;13.60;;;;;;;;;;5048366;28;20478;-78
2022/05/10 00:34:16;;;;;;;14.17;12.67;;;;;;;;;;5068944;28;20460;-78
2022/05/10 00:36:42;;;;;;;15.43;13.30;;;;;;;;;;5067389;28;20457;-78
2022/05/10 00:39:10;;;;;;;14.43;13.03;;;;;;;;;;5035116;28;21006;-78
2022/05/10 00:41:40;;;;;;;13.60;12.33;;;;;;;;;;5065729;28;20834;-78
2022/05/10 00:44:09;;;;;;;13.73;12.33;;;;;;;;;;5049533;28;20456;-78
2022/05/10 00:46:37;;;;;;;14.17;12.90;;;;;;;;;;5050277;28;20462;-78
2022/05/10 00:49:06;;;;;;;14.60;13.13;;;;;;;;;;5040197;28;20438;-78
2022/05/10 00:51:38;;;;;;;13.07;11.80;;;;;;;;;;5065545;28;20452;-78
2022/05/10 00:54:07;;;;;;;12.30;11.10;;;;;;;;;;5051135;28;20438;-78
2022/05/10 00:56:37;;;;;;;14.93;13.37;;;;;;;;;;5064691;28;20447;-78
2022/05/10 00:59:08;;;;;;;14.70;13.30;;;;;;;;;;5051478;28;20462;-78
2022/05/10 01:01:35;;;;;;;14.33;12.93;;;;;;;;;;5067529;28;20449;-78
2022/05/10 01:04:06;;;;;;;14.97;13.47;;;;;;;;;;5064158;28;20450;-79
2022/05/10 01:06:34;;;;;;;15.27;13.80;;;;;;;;;;5064445;28;20446;-78
2022/05/10 01:09:05;;;;;;;13.67;12.47;;;;;;;;;;5066156;28;20448;-78
2022/05/10 01:11:34;;;;;;;14.40;13.10;;;;;;;;;;5068299;28;21054;-78
2022/05/10 01:14:04;;;;;;;14.17;12.57;;;;;;;;;;5047029;28;20441;-78
2022/05/10 01:16:31;;;;;;;13.17;11.87;;;;;;;;;;5067669;28;20464;-78
2022/05/10 01:18:58;;;;;;;12.93;11.77;;;;;;;;;;5047941;28;20562;-78
2022/05/10 01:21:42;;;;;;;14.63;13.20;;;;;;;;;;5064209;28;21766;-78
2022/05/10 01:24:29;;;;;;;14.30;12.90;;;;;;;;;;5059949;28;20446;-78
2022/05/10 01:27:02;;;;;;;14.20;12.80;;;;;;;;;;5029639;28;20445;-78
2022/05/10 01:29:32;;;;;;;15.20;13.80;;;;;;;;;;5067669;28;20438;-78
2022/05/10 01:34:47;;;;;;;14.90;13.50;;;;;;;;;;5063991;28;20900;-78
2022/05/10 01:37:18;;;;;;;14.23;12.83;;;;;;;;;;5047657;28;20450;-78
2022/05/10 01:39:48;;;;;;;16.70;13.50;;;;;;;;;;5043360;28;20504;-78
2022/05/10 01:42:17;;;;;;;15.53;14.10;;;;;;;;;;5030138;28;20438;-78
2022/05/10 01:44:48;;;;;;;14.40;12.90;;;;;;;;;;5063529;28;20448;-78
2022/05/10 01:47:16;;;;;;;13.30;12.10;;;;;;;;;;5066082;28;20445;-78
2022/05/10 01:49:44;;;;;;;15.00;13.50;;;;;;;;;;5060710;28;20441;-78
2022/05/10 01:52:15;;;;;;;14.03;12.63;;;;;;;;;;5046182;28;20449;-78
2022/05/10 01:54:58;;;;;;;15.03;13.60;;;;;;;;;;5044111;28;20434;-78
2022/05/10 01:57:25;;;;;;;14.70;13.27;;;;;;;;;;5068732;28;20456;-78
2022/05/10 01:59:56;;;;;;;14.47;13.20;;;;;;;;;;5069145;28;20427;-78
2022/05/10 02:02:24;;;;;;;22.63;15.17;;;;;;;;;;5044830;28;20478;-78
2022/05/10 02:04:52;;;;;;;15.37;13.97;;;;;;;;;;5064873;28;20442;-78
2022/05/10 02:07:20;;;;;;;15.80;14.20;;;;;;;;;;5048776;28;20916;-78
2022/05/10 02:09:49;;;;;;;15.07;13.67;;;;;;;;;;5046679;28;20435;-78
2022/05/10 02:12:23;;;;;;;15.40;14.00;;;;;;;;;;5064147;28;20546;-78
2022/05/10 02:14:53;;;;;;;15.43;14.03;;;;;;;;;;5026771;28;20446;-78
2022/05/10 02:17:26;;;;;;;15.37;13.93;;;;;;;;;;5051398;28;20480;-78
2022/05/10 02:19:58;;;;;;;14.80;13.40;;;;;;;;;;5064144;28;20426;-78
2022/05/10 02:22:29;;;;;;;16.00;14.37;;;;;;;;;;5065184;28;20848;-78
2022/05/10 02:24:58;;;;;;;15.60;14.20;;;;;;;;;;5049814;28;20799;-78
2022/05/10 02:27:27;;;;;;;15.80;14.20;;;;;;;;;;5061037;28;20441;-78
2022/05/10 02:29:59;;;;;;;17.20;15.50;;;;;;;;;;5065988;28;20943;-78
2022/05/10 02:35:14;;;;;;;15.60;14.20;;;;;;;;;;5068816;28;20693;-78
2022/05/10 02:37:41;;;;;;;15.30;14.00;;;;;;;;;;5069386;28;20438;-78
2022/05/10 02:40:08;;;;;;;16.83;15.13;;;;;;;;;;5051173;28;20489;-78
2022/05/10 02:42:35;;;;;;;16.00;14.60;;;;;;;;;;5069673;28;20895;-78
2022/05/10 02:45:02;;;;;;;20.00;14.93;;;;;;;;;;5065437;28;20482;-78
2022/05/10 02:47:31;;;;;;;16.40;14.60;;;;;;;;;;5049293;28;20499;-78
2022/05/10 02:50:20;;;;;;;17.10;15.50;;;;;;;;;;5065915;28;20458;-78
2022/05/10 02:52:47;;;;;;;16.67;14.93;;;;;;;;;;5050426;28;20519;-78
2022/05/10 02:55:16;;;;;;;17.20;15.50;;;;;;;;;;5071959;28;20767;-78
2022/05/10 02:57:43;;;;;;;17.37;15.57;;;;;;;;;;5051453;28;20556;-78
2022/05/10 03:00:10;;;;;;;16.07;14.57;;;;;;;;;;5071543;28;20493;-78
2022/05/10 03:02:42;;;;;;;16.30;14.60;;;;;;;;;;5068950;28;20949;-78
2022/05/10 03:05:09;;;;;;;16.60;14.90;;;;;;;;;;5036275;28;20484;-78
2022/05/10 03:07:38;;;;;;;17.00;15.20;;;;;;;;;;5072581;28;21011;-78
2022/05/10 03:10:05;;;;;;;17.73;16.00;;;;;;;;;;5069025;28;20469;-78
2022/05/10 03:12:32;;;;;;;17.67;15.97;;;;;;;;;;5051421;28;20457;-78
2022/05/10 03:14:58;;;;;;;17.57;15.77;;;;;;;;;;5062782;28;20490;-77
2022/05/10 03:17:25;;;;;;;17.23;15.20;;;;;;;;;;5059099;28;20507;-78
2022/05/10 03:19:53;;;;;;;16.97;15.27;;;;;;;;;;5074015;28;20461;-78
2022/05/10 03:22:20;;;;;;;17.47;15.87;;;;;;;;;;5048694;28;20447;-78
2022/05/10 03:24:58;;;;;;;17.07;15.27;;;;;;;;;;5040098;28;20788;-78
2022/05/10 03:27:25;;;;;;;18.07;16.27;;;;;;;;;;5048650;28;20442;-78
2022/05/10 03:29:52;;;;;;;16.07;14.50;;;;;;;;;;5070668;28;20507;-76
2022/05/10 03:32:18;;;;;;;16.10;14.50;;;;;;;;;;5046232;28;20805;-78
2022/05/10 03:34:58;;;;;;;17.73;15.00;;;;;;;;;;5053192;28;20433;-78
2022/05/10 03:37:27;;;;;;;15.70;14.20;;;;;;;;;;5068978;28;20547;-77
2022/05/10 03:39:54;;;;;;;16.20;14.60;;;;;;;;;;5065844;28;20476;-77
2022/05/10 03:42:21;;;;;;;17.10;15.30;;;;;;;;;;5064153;28;20479;-77
2022/05/10 03:44:51;;;;;;;16.70;15.17;;;;;;;;;;5043341;28;20434;-77
2022/05/10 03:47:18;;;;;;;16.10;14.60;;;;;;;;;;5049449;28;20433;-77
2022/05/10 03:49:46;;;;;;;17.00;15.30;;;;;;;;;;5065610;28;20541;-77
2022/05/10 03:52:14;;;;;;;14.97;13.50;;;;;;;;;;5060019;28;20445;-78
2022/05/10 03:54:44;;;;;;;14.50;13.13;;;;;;;;;;5063005;28;20445;-77
2022/05/10 03:57:11;;;;;;;15.33;13.73;;;;;;;;;;5044942;28;20541;-78
2022/05/10 03:59:41;;;;;;;15.90;14.30;;;;;;;;;;5067162;28;20535;-77
2022/05/10 04:02:09;;;;;;;16.73;13.07;;;;;;;;;;5043744;28;20789;-77
2022/05/10 04:04:37;;;;;;;15.33;13.93;;;;;;;;;;5062729;28;20459;-77
2022/05/10 04:07:05;;;;;;;15.63;14.10;;;;;;;;;;5060979;28;20577;-77
2022/05/10 04:09:32;;;;;;;14.50;13.10;;;;;;;;;;5067525;28;20438;-77
2022/05/10 04:12:00;;;;;;;16.83;15.20;;;;;;;;;;5068849;28;20544;-78
2022/05/10 04:14:26;;;;;;;16.77;14.90;;;;;;;;;;5036813;28;20441;-77
2022/05/10 04:16:53;;;;;;;16.63;15.03;;;;;;;;;;5067296;28;20451;-77
2022/05/10 04:19:28;;;;;;;14.83;13.43;;;;;;;;;;5069380;28;20466;-77
2022/05/10 04:21:55;;;;;;;15.00;13.50;;;;;;;;;;5068210;28;20450;-77
2022/05/10 04:24:22;;;;;;;15.10;13.70;;;;;;;;;;5063730;28;20447;-77
2022/05/10 04:26:49;;;;;;;16.10;14.47;;;;;;;;;;5051592;28;20484;-77
2022/05/10 04:29:17;;;;;;;17.17;15.37;;;;;;;;;;5068885;28;20430;-77
2022/05/10 04:31:44;;;;;;;17.10;14.77;;;;;;;;;;5067118;28;20541;-77
2022/05/10 04:34:11;;;;;;;16.40;14.80;;;;;;;;;;5049411;28;20434;-77
2022/05/10 04:36:37;;;;;;;16.33;14.73;;;;;;;;;;5062954;28;20450;-77
2022/05/10 04:39:04;;;;;;;17.00;15.30;;;;;;;;;;5066052;28;20465;-77
2022/05/10 04:41:32;;;;;;;15.33;13.83;;;;;;;;;;5062884;28;20562;-77
2022/05/10 04:44:00;;;;;;;15.47;13.83;;;;;;;;;;5064848;28;20464;-77
2022/05/10 04:46:30;;;;;;;16.70;15.10;;;;;;;;;;5029478;28;20480;-77
2022/05/10 04:48:56;;;;;;;17.60;15.87;;;;;;;;;;5030728;28;20876;-77
2022/05/10 04:51:23;;;;;;;16.30;14.73;;;;;;;;;;5030303;28;20520;-77
2022/05/10 04:53:50;;;;;;;16.17;14.43;;;;;;;;;;5049463;28;20538;-77
2022/05/10 04:56:17;;;;;;;15.10;13.60;;;;;;;;;;5049699;28;20761;-78
2022/05/10 04:58:44;;;;;;;17.00;14.53;;;;;;;;;;5048104;28;20893;-78
2022/05/10 05:01:12;;;;;;;15.23;13.63;;;;;;;;;;5041170;28;20455;-78
2022/05/10 05:03:44;;;;;;;16.10;14.53;;;;;;;;;;5044152;28;20921;-78
2022/05/10 05:06:11;;;;;;;16.87;15.27;;;;;;;;;;5049906;28;20991;-78
2022/05/10 05:08:39;;;;;;;14.70;13.30;;;;;;;;;;5041406;28;20465;-78
2022/05/10 05:11:07;;;;;;;15.20;13.70;;;;;;;;;;5050476;28;20451;-78
2022/05/10 05:13:34;;;;;;;14.93;13.50;;;;;;;;;;5029718;28;20446;-78
2022/05/10 05:16:01;;;;;;;14.00;12.80;;;;;;;;;;5050308;28;20564;-78
2022/05/10 05:18:27;;;;;;;15.07;13.60;;;;;;;;;;5036013;28;20434;-78
2022/05/10 05:20:55;;;;;;;16.43;15.03;;;;;;;;;;5021732;28;20867;-78
2022/05/10 05:23:23;;;;;;;16.33;14.57;;;;;;;;;;5042763;28;20477;-78
2022/05/10 05:25:50;;;;;;;16.70;15.00;;;;;;;;;;5048914;28;20882;-78
2022/05/10 05:28:16;;;;;;;16.53;15.03;;;;;;;;;;5031452;28;20447;-78
2022/05/10 05:30:48;;;;;;;16.63;15.03;;;;;;;;;;5048013;28;20479;-78
2022/05/10 05:33:15;;;;;;;16.50;14.90;;;;;;;;;;5038808;28;20531;-78
2022/05/10 05:35:42;;;;;;;20.00;17.03;;;;;;;;;;5049061;28;20801;-78
2022/05/10 05:38:10;;;;;;;16.47;14.83;;;;;;;;;;5033899;28;20445;-78
2022/05/10 05:40:37;;;;;;;17.67;15.87;;;;;;;;;;5021425;28;20489;-78
2022/05/10 05:43:04;;;;;;;16.73;15.13;;;;;;;;;;5050110;28;20960;-79
2022/05/10 05:45:30;;;;;;;15.83;14.23;;;;;;;;;;5046294;28;20474;-78
2022/05/10 05:48:01;;;;;;;16.70;15.00;;;;;;;;;;5046886;28;20462;-78
2022/05/10 05:50:27;;;;;;;17.10;15.33;;;;;;;;;;5040792;28;20546;-78
2022/05/10 05:52:54;;;;;;;16.30;14.87;;;;;;;;;;5042707;28;20466;-79
2022/05/10 05:55:23;;;;;;;17.97;16.30;;;;;;;;;;5033762;28;20451;-79
2022/05/10 05:57:49;;;;;;;17.50;15.73;;;;;;;;;;5023080;28;20535;-79
2022/05/10 06:00:18;;;;;;;16.27;14.77;;;;;;;;;;5037992;28;20894;-79
2022/05/10 06:02:45;;;;;;;17.73;14.97;;;;;;;;;;5046686;28;20509;-79
2022/05/10 06:05:11;;;;;;;15.57;14.07;;;;;;;;;;5048225;28;24623;-79
2022/05/10 06:07:38;;;;;;;17.67;15.97;;;;;;;;;;5034114;28;20436;-79
2022/05/10 06:10:06;;;;;;;17.17;15.43;;;;;;;;;;5049919;28;20438;-79
2022/05/10 06:12:34;;;;;;;15.93;14.53;;;;;;;;;;5034517;28;20442;-79
2022/05/10 06:15:10;;;;;;;16.63;15.13;;;;;;;;;;5017492;28;20543;-79
2022/05/10 06:17:38;;;;;;;16.97;15.47;;;;;;;;;;5041284;28;20845;-79
2022/05/10 06:20:06;;;;;;;15.83;14.47;;;;;;;;;;5036154;28;20474;-79
2022/05/10 06:22:33;;;;;;;16.97;15.50;;;;;;;;;;5036208;28;20931;-79
2022/05/10 06:25:00;;;;;;;15.27;13.77;;;;;;;;;;5034783;28;20454;-79
2022/05/10 06:27:27;;;;;;;16.10;14.60;;;;;;;;;;5033178;28;20478;-79
2022/05/10 06:29:55;;;;;;;16.27;14.77;;;;;;;;;;5035842;28;20434;-79
2022/05/10 06:32:22;;;;;;;15.67;14.27;;;;;;;;;;5038578;28;20434;-79
2022/05/10 06:34:49;;;;;;;16.00;14.53;;;;;;;;;;5050700;28;20435;-79
2022/05/10 06:40:05;;;;;;;15.00;13.60;;;;;;;;;;5048020;28;20466;-79
2022/05/10 06:42:31;;;;;;;14.00;12.70;;;;;;;;;;5034136;28;20841;-79
2022/05/10 06:45:00;;;;;;;16.10;14.50;;;;;;;;;;5023436;28;20536;-79
2022/05/10 06:47:26;;;;;;;14.97;13.57;;;;;;;;;;5024373;28;20547;-79
2022/05/10 06:49:53;;;;;;;14.57;13.07;;;;;;;;;;5048418;28;20910;-80
2022/05/10 06:52:23;;;;;;;15.47;13.70;;;;;;;;;;5033061;28;20459;-81
2022/05/10 06:54:50;;;;;;;14.80;13.43;;;;;;;;;;5016149;28;20458;-80
2022/05/10 06:57:39;;;;;;;13.77;12.57;;;;;;;;;;5040375;28;20459;-81
2022/05/10 07:00:08;;;;;;;13.90;12.60;;;;;;;;;;5026871;28;20526;-79
2022/05/10 07:02:35;;;;;;;15.80;14.30;;;;;;;;;;5037203;28;20460;-79
2022/05/10 07:05:02;;;;;;;15.60;13.43;;;;;;;;;;5035246;28;20453;-79
2022/05/10 07:07:28;;;;;;;13.57;12.17;;;;;;;;;;5034285;28;20538;-79
2022/05/10 07:09:54;;;;;;;13.77;12.23;;;;;;;;;;5032194;28;20474;-79
2022/05/10 07:12:21;;;;;;;13.07;11.87;;;;;;;;;;5048165;28;20453;-80
2022/05/10 07:14:48;;;;;;;13.57;12.27;;;;;;;;;;5025411;28;20450;-80
2022/05/10 07:17:16;;;;;;;13.20;12.00;;;;;;;;;;5043427;28;20592;-79
2022/05/10 07:19:43;;;;;;;13.40;12.20;;;;;;;;;;5030311;28;21051;-79
2022/05/10 07:22:09;;;;;;;13.00;11.33;;;;;;;;;;5050529;28;20940;-80
2022/05/10 07:24:36;;;;;;;13.07;11.80;;;;;;;;;;5046984;28;20712;-80
2022/05/10 07:27:02;;;;;;;12.30;11.20;;;;;;;;;;5024024;28;20859;-80
2022/05/10 07:29:29;;;;;;;11.67;10.57;;;;;;;;;;5034533;28;20493;-79
2022/05/10 07:31:56;;;;;;;12.27;11.17;;;;;;;;;;5052914;28;20434;-80
2022/05/10 07:34:24;;;;;;;13.60;12.40;;;;;;;;;;5034408;28;20937;-78
2022/05/10 07:36:50;;;;;;;15.50;13.90;;;;;;;;;;5052217;28;20515;-79
2022/05/10 07:39:18;;;;;;;13.53;11.17;;;;;;;;;;5030805;28;20542;-80
2022/05/10 07:41:44;;;;;;;14.23;12.97;;;;;;;;;;5026901;28;20558;-80
2022/05/10 07:44:11;;;;;;;12.83;11.77;;;;;;;;;;5050022;28;20554;-80
2022/05/10 07:46:38;;;;;;;14.17;12.70;;;;;;;;;;5034077;28;20536;-80
2022/05/10 07:49:05;;;;;;;13.10;11.90;;;;;;;;;;5051722;28;20455;-80
2022/05/10 07:51:33;;;;;;;11.40;10.50;;;;;;;;;;5051879;28;20441;-80
2022/05/10 07:53:59;;;;;;;12.30;11.27;;;;;;;;;;5054909;28;20440;-80
2022/05/10 07:56:26;;;;;;;12.53;11.40;;;;;;;;;;5036284;28;20496;-80
2022/05/10 07:58:53;;;;;;;11.60;10.60;;;;;;;;;;5048994;28;20852;-79
2022/05/10 08:01:19;;;;;;;11.37;10.27;;;;;;;;;;5034279;28;20478;-79
2022/05/10 08:03:46;;;;;;;11.20;10.20;;;;;;;;;;5037667;28;20451;-79
2022/05/10 08:06:13;;;;;;;11.50;10.60;;;;;;;;;;5058577;28;20913;-79
2022/05/10 08:08:41;;;;;;;11.90;10.90;;;;;;;;;;5052213;28;20443;-80
2022/05/10 08:11:09;;;;;;;11.30;10.40;;;;;;;;;;5062709;28;20454;-80
2022/05/10 08:13:37;;;;;;;10.63;9.83;;;;;;;;;;5049199;28;20452;-80
2022/05/10 08:16:04;;;;;;;11.90;10.83;;;;;;;;;;5027186;28;20490;-80
2022/05/10 08:18:31;;;;;;;11.20;10.30;;;;;;;;;;5040242;28;20443;-80
2022/05/10 08:20:58;;;;;;;11.40;10.40;;;;;;;;;;5050684;28;20589;-80
2022/05/10 08:23:25;;;;;;;10.53;9.53;;;;;;;;;;5034410;28;20541;-80
2022/05/10 08:25:54;;;;;;;11.10;10.13;;;;;;;;;;5035479;28;20868;-80
2022/05/10 08:28:20;;;;;;;10.40;9.47;;;;;;;;;;5052333;28;20450;-80
2022/05/10 08:30:47;;;;;;;10.43;9.57;;;;;;;;;;5051169;28;20451;-79
2022/05/10 08:33:17;;;;;;;10.87;9.77;;;;;;;;;;5048044;28;20793;-80
2022/05/10 08:35:46;;;;;;;10.10;9.30;;;;;;;;;;5067404;28;20533;-80
2022/05/10 08:38:12;;;;;;;10.53;9.57;;;;;;;;;;5050390;28;20442;-80
2022/05/10 08:40:42;;;;;;;10.30;9.30;;;;;;;;;;5033380;28;20479;-80
2022/05/10 08:43:12;;;;;;;10.20;9.40;;;;;;;;;;5051121;28;20845;-80
2022/05/10 08:45:41;;;;;;;10.03;9.23;;;;;;;;;;5062624;28;20576;-80
2022/05/10 08:48:08;;;;;;;10.20;9.40;;;;;;;;;;5053147;28;20450;-80
2022/05/10 08:50:34;;;;;;;10.13;9.33;;;;;;;;;;5052284;28;20442;-80
2022/05/10 08:53:01;;;;;;;11.07;9.70;;;;;;;;;;5069793;28;20524;-80
2022/05/10 08:55:29;;;;;;;10.23;9.43;;;;;;;;;;5053057;28;20967;-80
2022/05/10 08:58:01;;;;;;;10.87;9.97;;;;;;;;;;5052593;28;20489;-80
2022/05/10 09:00:31;;;;;;;11.60;10.40;;;;;;;;;;5069311;28;20473;-80
2022/05/10 09:03:00;;;;;;;10.60;9.70;;;;;;;;;;5045765;28;20446;-80
2022/05/10 09:05:32;;;;;;;9.97;9.10;;;;;;;;;;5071576;28;20519;-80
2022/05/10 09:08:03;;;;;;;10.73;9.83;;;;;;;;;;5071694;28;20425;-80
2022/05/10 09:10:34;;;;;;;10.70;9.80;;;;;;;;;;5051125;28;20499;-80
2022/05/10 09:13:01;;;;;;;9.50;8.80;;;;;;;;;;5071634;28;20433;-80
2022/05/10 09:15:33;;;;;;;10.93;9.93;;;;;;;;;;5053218;28;20445;-80
2022/05/10 09:17:59;;;;;;;10.37;9.50;;;;;;;;;;5071924;28;20438;-80
2022/05/10 09:20:26;;;;;;;10.73;9.83;;;;;;;;;;5048703;28;20977;-80
2022/05/10 09:22:58;;;;;;;10.23;9.43;;;;;;;;;;5069340;28;20456;-80
2022/05/10 09:25:31;;;;;;;11.73;10.73;;;;;;;;;;5067071;28;21008;-80
2022/05/10 09:27:58;;;;;;;10.97;9.97;;;;;;;;;;5069648;28;20481;-80
2022/05/10 09:30:26;;;;;;;9.93;8.93;;;;;;;;;;5071429;28;20429;-80
2022/05/10 09:35:58;;;;;;;10.70;9.63;;;;;;;;;;5050416;28;20465;-80
2022/05/10 09:38:25;;;;;;;9.40;8.70;;;;;;;;;;5051640;28;20817;-80
2022/05/10 09:40:52;;;;;;;9.60;8.70;;;;;;;;;;5049604;28;20479;-80
2022/05/10 09:43:22;;;;;;;8.90;8.20;;;;;;;;;;5064099;28;20908;-80
2022/05/10 09:46:05;;;;;;;9.30;8.50;;;;;;;;;;5067573;28;20479;-80
2022/05/10 09:48:33;;;;;;;8.47;7.67;;;;;;;;;;5055106;28;20465;-80
2022/05/10 09:51:02;;;;;;;10.07;8.90;;;;;;;;;;5060585;28;20794;-79
2022/05/10 09:53:30;;;;;;;9.63;8.93;;;;;;;;;;5053086;28;20465;-80
2022/05/10 09:56:00;;;;;;;9.17;8.57;;;;;;;;;;5058201;28;20459;-80
2022/05/10 09:58:28;;;;;;;9.57;8.77;;;;;;;;;;5056623;28;20446;-80
2022/05/10 10:00:56;;;;;;;9.30;8.50;;;;;;;;;;5074969;28;20468;-80
2022/05/10 10:03:25;;;;;;;9.30;8.60;;;;;;;;;;5075296;28;20491;-80
2022/05/10 10:05:54;;;;;;;8.70;8.00;;;;;;;;;;5038234;28;20453;-80
2022/05/10 10:08:37;;;;;;;9.47;8.57;;;;;;;;;;5075175;28;20430;-80
2022/05/10 10:11:05;;;;;;;8.90;8.20;;;;;;;;;;5057812;28;20450;-80
2022/05/10 10:13:35;;;;;;;8.57;7.70;;;;;;;;;;5057548;28;20450;-79
2022/05/10 10:16:01;;;;;;;8.80;8.10;;;;;;;;;;5055997;28;20439;-79
2022/05/10 10:18:45;;;;;;;9.00;8.33;;;;;;;;;;5074707;28;20434;-80
2022/05/10 10:21:15;;;;;;;6.43;5.93;;;;;;;;;;5037235;28;20828;-80
2022/05/10 10:23:46;;;;;;;7.23;6.63;;;;;;;;;;5049656;28;20445;-79
2022/05/10 10:26:15;;;;;;;7.30;6.80;;;;;;;;;;5074522;28;20444;-79
2022/05/10 10:28:45;;;;;;;6.87;6.27;;;;;;;;;;5073055;28;20498;-79
2022/05/10 10:31:14;;;;;;;7.33;6.80;;;;;;;;;;5054790;28;20542;-79
2022/05/10 10:33:44;;;;;;;7.93;7.33;;;;;;;;;;5069550;28;20438;-80
2022/05/10 10:36:14;;;;;;;8.57;7.97;;;;;;;;;;5073012;28;20456;-79
2022/05/10 10:38:50;;;;;;;8.17;7.37;;;;;;;;;;5074631;28;20430;-80
2022/05/10 10:41:22;;;;;;;7.90;7.30;;;;;;;;;;5055587;28;20556;-79
2022/05/10 10:43:52;;;;;;;8.73;7.93;;;;;;;;;;5055542;28;20450;-79
2022/05/10 10:46:24;;;;;;;9.37;8.00;;;;;;;;;;5053809;28;20484;-79
2022/05/10 10:48:54;;;;;;;8.57;7.77;;;;;;;;;;5048186;28;20438;-79
2022/05/10 10:51:23;;;;;;;8.20;7.50;;;;;;;;;;5072617;28;20495;-79
2022/05/10 10:53:50;;;;;;;7.60;7.10;;;;;;;;;;5072002;28;20462;-79
2022/05/10 10:56:39;;;;;;;8.23;7.53;;;;;;;;;;5055625;28;20460;-79
2022/05/10 10:59:20;;;;;;;9.23;8.40;;;;;;;;;;5072865;28;20520;-79
2022/05/10 11:01:58;;;;;;;8.00;7.20;;;;;;;;;;5052549;28;20549;-79
2022/05/10 11:04:54;;;;;;;8.83;8.13;;;;;;;;;;5053768;28;20431;-80
2022/05/10 11:07:24;;;;;;;9.67;7.40;;;;;;;;;;5072338;28;20449;-79
2022/05/10 11:09:56;;;;;;;9.57;6.97;;;;;;;;;;5065138;28;20489;-79
2022/05/10 11:12:30;;;;;;;7.57;6.97;;;;;;;;;;5035505;28;20446;-79
2022/05/10 11:15:09;;;;;;;7.93;7.13;;;;;;;;;;5045795;28;20836;-79
2022/05/10 11:17:41;;;;;;;8.80;7.53;;;;;;;;;;5073546;28;20433;-79
2022/05/10 11:20:18;;;;;;;9.40;8.60;;;;;;;;;;5073246;28;20610;-79
2022/05/10 11:22:50;;;;;;;7.73;7.13;;;;;;;;;;5054409;28;20460;-79
2022/05/10 11:25:23;;;;;;;8.70;8.00;;;;;;;;;;5072207;28;20533;-79
2022/05/10 11:28:01;;;;;;;8.43;7.60;;;;;;;;;;5055123;28;20470;-80
2022/05/10 11:30:30;;;;;;;7.57;6.97;;;;;;;;;;5054354;28;20450;-79
2022/05/10 11:33:10;;;;;;;7.50;6.90;;;;;;;;;;5062761;28;20491;-79
2022/05/10 11:35:47;;;;;;;7.20;6.60;;;;;;;;;;5050396;28;20454;-79
2022/05/10 11:38:17;;;;;;;6.77;6.17;;;;;;;;;;5068286;28;20948;-79
2022/05/10 11:40:50;;;;;;;7.70;7.10;;;;;;;;;;5037346;28;20532;-79
2022/05/10 11:43:38;;;;;;;8.70;6.60;;;;;;;;;;5043978;28;20546;-79
2022/05/10 11:46:33;;;;;;;6.53;5.73;;;;;;;;;;5032725;28;20886;-79
2022/05/10 11:49:07;;;;;;;6.80;6.13;;;;;;;;;;5046372;28;20458;-79
2022/05/10 11:51:57;;;;;;;6.20;5.60;;;;;;;;;;5044703;28;20661;-79
2022/05/10 11:54:45;;;;;;;6.17;5.57;;;;;;;;;;5020369;28;20471;-79
2022/05/10 11:57:14;;;;;;;5.70;5.20;;;;;;;;;;5067350;28;20438;-79
2022/05/10 11:59:42;;;;;;;6.80;6.30;;;;;;;;;;5049705;28;20439;-79
2022/05/10 12:02:24;;;;;;;6.00;5.47;;;;;;;;;;5049250;28;20465;-79
2022/05/10 12:05:13;;;;;;;6.60;6.00;;;;;;;;;;5045298;28;20996;-79
2022/05/10 12:07:43;;;;;;;6.10;5.60;;;;;;;;;;5046742;28;20442;-79
2022/05/10 12:10:25;;;;;;;6.17;5.60;;;;;;;;;;5044264;28;20431;-79
2022/05/10 12:13:13;;;;;;;7.00;6.40;;;;;;;;;;5067385;28;20437;-78
2022/05/10 12:21:50;;;;;;;5.80;5.40;;;;;;;;;;5049899;28;20450;-79
2022/05/10 12:24:44;;;;;;;6.50;5.50;;;;;;;;;;5035166;28;20450;-79
2022/05/10 12:27:31;;;;;;;6.53;6.03;;;;;;;;;;5064609;28;20561;-79
2022/05/10 12:30:07;;;;;;;6.20;5.70;;;;;;;;;;5029656;28;20442;-79
2022/05/10 12:32:46;;;;;;;7.47;6.33;;;;;;;;;;5051548;28;20461;-79
2022/05/10 12:35:18;;;;;;;6.10;5.60;;;;;;;;;;5051287;28;20988;-79
2022/05/10 12:37:56;;;;;;;6.53;5.93;;;;;;;;;;5043079;28;20947;-79
2022/05/10 12:40:33;;;;;;;6.17;5.67;;;;;;;;;;5029041;28;20438;-79
2022/05/10 12:43:17;;;;;;;6.93;6.43;;;;;;;;;;5067147;28;20721;-79
2022/05/10 12:45:45;;;;;;;5.83;5.33;;;;;;;;;;5061069;28;20477;-79
2022/05/10 12:48:22;;;;;;;5.67;5.27;;;;;;;;;;5043424;28;20466;-79
2022/05/10 12:50:55;;;;;;;5.90;5.40;;;;;;;;;;5061416;28;20430;-79
2022/05/10 12:53:25;;;;;;;6.47;5.97;;;;;;;;;;5049871;28;20459;-79
2022/05/10 12:55:52;;;;;;;6.57;6.07;;;;;;;;;;5041962;28;21047;-79
2022/05/10 12:58:21;;;;;;;6.23;5.73;;;;;;;;;;5051879;28;20734;-79
2022/05/10 13:00:52;;;;;;;6.00;5.60;;;;;;;;;;5048392;28;20434;-79
2022/05/10 13:03:22;;;;;;;5.67;5.27;;;;;;;;;;5053729;28;20479;-79
2022/05/10 13:05:58;;;;;;;5.40;4.90;;;;;;;;;;5064336;28;20471;-79
2022/05/10 13:08:37;;;;;;;5.10;4.70;;;;;;;;;;5062426;28;20430;-79
2022/05/10 13:11:05;;;;;;;5.57;5.07;;;;;;;;;;5061113;28;20900;-79
2022/05/10 13:13:33;;;;;;;5.80;5.30;;;;;;;;;;5049727;28;20468;-79
2022/05/10 13:16:00;;;;;;;5.90;5.40;;;;;;;;;;5064527;28;20787;-79
2022/05/10 13:18:28;;;;;;;6.20;5.70;;;;;;;;;;5042094;28;20453;-79
2022/05/10 13:20:59;;;;;;;6.00;5.50;;;;;;;;;;5050679;28;20446;-79
2022/05/10 13:23:27;;;;;;;6.40;5.80;;;;;;;;;;5052145;28;20575;-79
2022/05/10 13:25:54;;;;;;;6.40;5.90;;;;;;;;;;5060775;28;20457;-79
2022/05/10 13:28:22;;;;;;;6.63;6.03;;;;;;;;;;5048537;28;20503;-79
2022/05/10 13:30:53;;;;;;;6.10;5.70;;;;;;;;;;5065575;28;20426;-79
2022/05/10 13:33:24;;;;;;;6.03;5.53;;;;;;;;;;5047089;28;20455;-79
2022/05/10 13:35:54;;;;;;;6.17;5.67;;;;;;;;;;5065199;28;20434;-79
2022/05/10 13:38:21;;;;;;;6.00;5.50;;;;;;;;;;5052180;28;20533;-79
2022/05/10 13:40:48;;;;;;;5.80;5.40;;;;;;;;;;5050840;28;20441;-79
2022/05/10 13:43:17;;;;;;;7.20;6.60;;;;;;;;;;5061184;28;20492;-79
2022/05/10 13:45:49;;;;;;;6.70;6.10;;;;;;;;;;5070907;28;20850;-79
2022/05/10 13:48:16;;;;;;;6.77;6.27;;;;;;;;;;5073519;28;20449;-79
2022/05/10 13:50:43;;;;;;;6.53;5.93;;;;;;;;;;5070863;28;20426;-79
2022/05/10 13:53:15;;;;;;;6.63;6.03;;;;;;;;;;5070230;28;20454;-79
2022/05/10 13:55:51;;;;;;;5.80;5.30;;;;;;;;;;5052504;28;20464;-78
2022/05/10 13:58:29;;;;;;;6.40;5.80;;;;;;;;;;5063271;28;20492;-79
2022/05/10 14:00:57;;;;;;;6.47;5.83;;;;;;;;;;5039227;28;20457;-79
2022/05/10 14:03:25;;;;;;;6.23;5.73;;;;;;;;;;5060757;28;20485;-79
2022/05/10 14:05:59;;;;;;;5.80;5.30;;;;;;;;;;5050714;28;20522;-79
2022/05/10 14:08:28;;;;;;;6.50;6.00;;;;;;;;;;5045622;28;20830;-79
2022/05/10 14:11:00;;;;;;;6.17;5.67;;;;;;;;;;5051009;28;20823;-79
2022/05/10 14:13:27;;;;;;;6.77;6.27;;;;;;;;;;5064106;28;20482;-79
2022/05/10 14:15:57;;;;;;;6.43;5.93;;;;;;;;;;5062551;28;20798;-79
2022/05/10 14:18:30;;;;;;;6.30;5.80;;;;;;;;;;5049520;28;20450;-79
2022/05/10 14:21:02;;;;;;;6.57;5.97;;;;;;;;;;5066305;28;20910;-79
2022/05/10 14:23:34;;;;;;;7.20;6.50;;;;;;;;;;5028379;28;20564;-79
2022/05/10 14:26:23;;;;;;;6.90;6.30;;;;;;;;;;5065081;28;20815;-77
2022/05/10 14:28:53;;;;;;;6.80;6.30;;;;;;;;;;5048844;28;20488;-77
2022/05/10 14:31:28;;;;;;;6.43;5.93;;;;;;;;;;5048734;28;20473;-77
2022/05/10 14:33:56;;;;;;;6.83;5.63;;;;;;;;;;5068894;28;20441;-77
2022/05/10 14:36:25;;;;;;;6.73;5.87;;;;;;;;;;5064695;28;20512;-77
2022/05/10 14:38:53;;;;;;;7.50;6.90;;;;;;;;;;5047026;28;20438;-77
2022/05/10 14:41:29;;;;;;;6.50;6.00;;;;;;;;;;5059492;28;20529;-77
2022/05/10 14:43:56;;;;;;;6.80;6.27;;;;;;;;;;5035923;28;21011;-77
2022/05/10 14:46:27;;;;;;;7.67;7.00;;;;;;;;;;5032461;28;20471;-77
2022/05/10 14:48:55;;;;;;;7.00;6.50;;;;;;;;;;5051375;28;21048;-77
2022/05/10 14:51:33;;;;;;;6.73;6.20;;;;;;;;;;5035581;28;20443;-77
2022/05/10 14:54:02;;;;;;;9.63;6.90;;;;;;;;;;5033759;28;20458;-77
2022/05/10 14:56:29;;;;;;;7.93;7.27;;;;;;;;;;5022379;28;20427;-77
2022/05/10 14:59:07;;;;;;;7.37;6.77;;;;;;;;;;5034985;28;20441;-77
2022/05/10 15:01:36;;;;;;;7.63;6.90;;;;;;;;;;5026380;28;20543;-77